Time;durP1;ratioP1;P1;durP2;ratioP2;P2;SDS_P1;SDS_P2;PMS_P1;PMS_P2;Temp;Humidity;BMP_temperature;BMP_pressure;BME280_temperature;BME280_humidity;BME280_pressure;Samples;Min_cycle;Max_cycle;Signal;HPM_P1;HPM_P2
2022/04/20 00:01:26;;;;;;;2.93;2.60;;;4.00;99.90;;;;;;5021089;28;20610;-84
2022/04/20 00:03:52;;;;;;;4.03;2.97;;;4.00;99.90;;;;;;5021945;28;20171;-84
2022/04/20 00:06:17;;;;;;;3.60;2.60;;;4.00;99.90;;;;;;5021680;28;20241;-83
2022/04/20 00:08:43;;;;;;;3.97;2.40;;;3.80;99.90;;;;;;5022302;28;20189;-84
2022/04/20 00:11:09;;;;;;;2.93;2.57;;;3.90;99.90;;;;;;5021520;28;20210;-84
2022/04/20 00:13:35;;;;;;;4.80;2.57;;;3.90;99.90;;;;;;5020734;28;20577;-84
2022/04/20 00:16:01;;;;;;;3.60;2.77;;;3.90;99.90;;;;;;5020666;28;20175;-84
2022/04/20 00:18:26;;;;;;;3.53;2.80;;;3.80;99.90;;;;;;5023055;28;20836;-84
2022/04/20 00:20:52;;;;;;;4.03;3.23;;;3.70;99.90;;;;;;5021742;28;20194;-84
2022/04/20 00:23:18;;;;;;;4.10;3.33;;;3.70;99.90;;;;;;5021412;28;20174;-84
2022/04/20 00:25:43;;;;;;;2.87;2.60;;;3.50;99.90;;;;;;5026056;28;20178;-84
2022/04/20 00:28:09;;;;;;;2.87;2.57;;;3.30;99.90;;;;;;5020047;28;20183;-84
2022/04/20 00:30:35;;;;;;;3.20;2.70;;;3.40;99.90;;;;;;5020376;28;20201;-84
2022/04/20 00:33:01;;;;;;;3.10;2.80;;;3.40;99.90;;;;;;5021456;28;20173;-84
2022/04/20 00:35:27;;;;;;;4.87;2.63;;;3.30;99.90;;;;;;5021068;28;20178;-84
2022/04/20 00:37:52;;;;;;;3.00;2.67;;;3.20;99.90;;;;;;5020042;28;20217;-84
2022/04/20 00:40:18;;;;;;;3.80;3.33;;;3.20;99.90;;;;;;5019414;28;20183;-84
2022/04/20 00:42:44;;;;;;;3.33;2.67;;;3.10;99.90;;;;;;5021027;28;20264;-84
2022/04/20 00:45:11;;;;;;;3.07;2.73;;;3.10;99.90;;;;;;5021827;28;20175;-84
2022/04/20 00:47:39;;;;;;;3.73;3.13;;;3.10;99.90;;;;;;5020510;28;20262;-84
2022/04/20 00:50:07;;;;;;;3.90;2.83;;;3.00;99.90;;;;;;5020148;28;20508;-84
2022/04/20 00:52:33;;;;;;;6.83;3.53;;;3.00;99.90;;;;;;5019236;28;20440;-84
2022/04/20 00:54:59;;;;;;;3.50;3.20;;;3.00;99.90;;;;;;5019795;28;20453;-84
2022/04/20 00:57:25;;;;;;;3.60;3.07;;;3.10;99.90;;;;;;5020595;28;20175;-84
2022/04/20 00:59:54;;;;;;;3.67;3.20;;;3.00;99.90;;;;;;5019205;28;20178;-84
2022/04/20 01:02:21;;;;;;;3.90;3.13;;;3.00;99.90;;;;;;5020118;28;20535;-84
2022/04/20 01:04:47;;;;;;;3.77;3.20;;;2.90;99.90;;;;;;5021779;28;20417;-84
2022/04/20 01:07:14;;;;;;;3.13;2.63;;;2.80;99.90;;;;;;5025611;28;20422;-84
2022/04/20 01:09:44;;;;;;;3.50;3.03;;;3.10;99.90;;;;;;5026644;28;20182;-83
2022/04/20 01:12:12;;;;;;;3.30;2.97;;;4.00;99.90;;;;;;5021454;28;20449;-84
2022/04/20 01:14:39;;;;;;;4.17;2.67;;;2.80;99.90;;;;;;5020708;28;20425;-84
2022/04/20 01:17:06;;;;;;;3.73;2.83;;;2.80;99.90;;;;;;5018723;28;20424;-83
2022/04/20 01:19:38;;;;;;;3.63;2.80;;;2.70;99.90;;;;;;5019299;28;20496;-84
2022/04/20 01:22:05;;;;;;;4.53;2.93;;;2.70;99.90;;;;;;5018300;28;20465;-83
2022/04/20 01:24:32;;;;;;;3.87;3.10;;;2.70;99.90;;;;;;5019696;28;20888;-83
2022/04/20 01:26:58;;;;;;;5.23;3.40;;;2.60;99.90;;;;;;5020210;28;20422;-84
2022/04/20 01:29:26;;;;;;;3.20;2.90;;;2.60;99.90;;;;;;5019119;28;20991;-83
2022/04/20 01:31:52;;;;;;;4.73;3.13;;;;;;;;;;5020778;28;20847;-83
2022/04/20 01:34:17;;;;;;;3.17;2.37;;;2.60;99.90;;;;;;5019353;28;20406;-84
2022/04/20 01:36:43;;;;;;;3.27;2.73;;;2.50;99.90;;;;;;5019862;28;20505;-84
2022/04/20 01:39:09;;;;;;;3.73;2.93;;;2.70;99.90;;;;;;5021018;28;20179;-83
2022/04/20 01:41:35;;;;;;;3.60;3.00;;;3.10;99.90;;;;;;5020417;28;20281;-83
2022/04/20 01:44:00;;;;;;;3.30;2.80;;;2.20;99.90;;;;;;5020946;28;20540;-83
2022/04/20 01:46:26;;;;;;;3.50;2.93;;;2.30;99.90;;;;;;5015707;28;20576;-83
2022/04/20 01:48:52;;;;;;;4.00;3.27;;;2.10;99.90;;;;;;5015088;28;20174;-83
2022/04/20 01:54:01;;;;;;;2.60;2.40;;;2.10;99.90;;;;;;5019710;28;20194;-83
2022/04/20 01:56:27;;;;;;;5.17;3.20;;;2.10;99.90;;;;;;5018489;28;20425;-83
2022/04/20 01:58:53;;;;;;;3.50;2.90;;;2.20;99.90;;;;;;5019633;28;20578;-83
2022/04/20 02:04:03;;;;;;;2.77;2.47;;;;;;;;;;5019030;28;20531;-83
2022/04/20 02:06:29;;;;;;;4.30;2.83;;;2.10;99.90;;;;;;5019920;28;20446;-83
2022/04/20 02:08:54;;;;;;;3.90;3.37;;;2.00;99.90;;;;;;5022694;28;20414;-83
2022/04/20 02:11:20;;;;;;;3.30;2.93;;;2.00;99.90;;;;;;5021536;28;20202;-83
2022/04/20 02:13:46;;;;;;;3.73;3.33;;;2.00;99.90;;;;;;5021577;28;20178;-83
2022/04/20 02:16:11;;;;;;;4.33;3.20;;;2.10;99.90;;;;;;5022031;28;20171;-83
2022/04/20 02:18:37;;;;;;;3.80;2.87;;;2.00;99.90;;;;;;5022272;28;20228;-83
2022/04/20 02:21:03;;;;;;;4.50;2.90;;;1.90;99.90;;;;;;5021881;28;20205;-83
2022/04/20 02:23:29;;;;;;;4.27;2.93;;;;;;;;;;5021420;28;20560;-83
2022/04/20 02:25:55;;;;;;;6.00;2.83;;;1.80;99.90;;;;;;5022073;28;20175;-83
2022/04/20 02:28:20;;;;;;;5.60;2.87;;;1.80;99.90;;;;;;5020380;28;20523;-83
2022/04/20 02:30:47;;;;;;;4.63;3.10;;;1.90;99.90;;;;;;5022322;28;20182;-83
2022/04/20 02:33:13;;;;;;;4.00;3.10;;;1.70;99.90;;;;;;5020899;28;20664;-83
2022/04/20 02:35:40;;;;;;;3.83;3.17;;;1.70;99.90;;;;;;5022598;28;20418;-83
2022/04/20 02:38:10;;;;;;;4.23;3.33;;;1.70;99.90;;;;;;5022061;28;20222;-83
2022/04/20 02:40:38;;;;;;;3.50;2.93;;;1.50;99.90;;;;;;5022784;28;20406;-84
2022/04/20 02:43:04;;;;;;;4.20;2.80;;;1.40;99.90;;;;;;5021771;28;20461;-83
2022/04/20 02:45:30;;;;;;;4.03;3.23;;;1.40;99.90;;;;;;5020647;28;20429;-83
2022/04/20 02:47:56;;;;;;;3.57;3.13;;;1.40;99.90;;;;;;5034364;28;20181;-83
2022/04/20 02:50:23;;;;;;;3.67;3.03;;;1.40;99.90;;;;;;5033496;28;20454;-83
2022/04/20 02:52:49;;;;;;;4.13;3.20;;;1.40;99.90;;;;;;5024876;28;20600;-83
2022/04/20 02:55:14;;;;;;;4.03;3.37;;;1.50;99.90;;;;;;5022565;28;20414;-83
2022/04/20 02:57:40;;;;;;;3.93;3.43;;;1.40;99.90;;;;;;5020447;28;20225;-83
2022/04/20 03:00:06;;;;;;;4.23;2.90;;;1.40;99.90;;;;;;5020498;28;20179;-83
2022/04/20 03:02:32;;;;;;;3.90;3.20;;;1.30;99.90;;;;;;5021794;28;20571;-82
2022/04/20 03:04:57;;;;;;;6.03;3.37;;;1.30;99.90;;;;;;5020793;28;20414;-83
2022/04/20 03:07:23;;;;;;;3.77;2.83;;;1.20;99.90;;;;;;5021399;28;20172;-83
2022/04/20 03:09:49;;;;;;;4.50;4.00;;;1.30;99.90;;;;;;5021425;28;20174;-83
2022/04/20 03:12:14;;;;;;;5.20;3.90;;;1.40;99.90;;;;;;5019701;28;20207;-83
2022/04/20 03:14:40;;;;;;;5.03;3.50;;;1.20;99.90;;;;;;5019952;28;20179;-83
2022/04/20 03:17:06;;;;;;;4.43;3.37;;;1.30;99.90;;;;;;5020099;28;20187;-83
2022/04/20 03:19:32;;;;;;;3.53;2.80;;;1.30;99.90;;;;;;5020732;28;20175;-83
2022/04/20 03:21:57;;;;;;;3.00;2.70;;;1.30;99.90;;;;;;5019437;28;20211;-83
2022/04/20 03:24:23;;;;;;;4.53;3.40;;;1.10;99.90;;;;;;5020376;28;20242;-84
2022/04/20 03:26:49;;;;;;;3.27;2.87;;;1.10;99.90;;;;;;5019784;28;20245;-83
2022/04/20 03:29:14;;;;;;;3.40;3.00;;;1.00;99.90;;;;;;5020946;28;20237;-83
2022/04/20 03:31:40;;;;;;;3.90;2.90;;;1.00;99.90;;;;;;5019498;28;20218;-83
2022/04/20 03:34:06;;;;;;;5.27;3.20;;;0.90;99.90;;;;;;5019296;28;20183;-83
2022/04/20 03:36:32;;;;;;;5.07;3.30;;;0.90;99.90;;;;;;5019727;28;20178;-83
2022/04/20 03:38:57;;;;;;;6.67;3.00;;;1.10;99.90;;;;;;5020735;28;20274;-83
2022/04/20 03:41:23;;;;;;;4.23;3.07;;;1.00;99.90;;;;;;5020812;28;20225;-83
2022/04/20 03:43:49;;;;;;;4.13;3.20;;;0.80;99.90;;;;;;5020187;28;20189;-83
2022/04/20 03:46:15;;;;;;;3.73;3.07;;;0.90;99.90;;;;;;5022061;28;20275;-83
2022/04/20 03:48:41;;;;;;;4.20;3.10;;;0.90;99.90;;;;;;5021093;28;20919;-83
2022/04/20 03:51:07;;;;;;;3.83;3.53;;;0.80;99.90;;;;;;5020796;28;20649;-83
2022/04/20 03:53:32;;;;;;;7.60;2.97;;;1.20;99.90;;;;;;5022561;28;20179;-83
2022/04/20 03:55:58;;;;;;;5.43;3.23;;;0.70;99.90;;;;;;5021278;28;20185;-83
2022/04/20 03:58:24;;;;;;;3.63;2.97;;;0.60;99.90;;;;;;5022796;28;20254;-83
2022/04/20 04:00:51;;;;;;;3.33;2.70;;;2.30;99.90;;;;;;5022399;28;20286;-84
2022/04/20 04:03:18;;;;;;;4.13;3.10;;;0.60;99.90;;;;;;5020081;28;20183;-83
2022/04/20 04:05:43;;;;;;;3.27;2.93;;;0.50;99.90;;;;;;5019198;28;20787;-83
2022/04/20 04:08:09;;;;;;;5.67;3.90;;;1.70;99.90;;;;;;5019991;28;20422;-83
2022/04/20 04:10:35;;;;;;;4.80;3.80;;;0.50;99.90;;;;;;5022083;28;20187;-84
2022/04/20 04:13:01;;;;;;;4.57;3.20;;;0.50;99.90;;;;;;5020598;28;20209;-83
2022/04/20 04:15:28;;;;;;;4.37;3.30;;;0.50;99.90;;;;;;5019821;28;20190;-83
2022/04/20 04:17:58;;;;;;;5.63;3.77;;;0.40;99.90;;;;;;5021143;28;20429;-83
2022/04/20 04:20:27;;;;;;;3.50;3.13;;;1.70;99.90;;;;;;5024375;28;20462;-84
2022/04/20 04:22:54;;;;;;;5.40;3.37;;;0.30;99.90;;;;;;5021183;28;20791;-83
2022/04/20 04:25:20;;;;;;;3.60;3.00;;;0.30;99.90;;;;;;5020441;28;20879;-83
2022/04/20 04:27:46;;;;;;;4.40;3.23;;;1.60;99.90;;;;;;5025860;28;20923;-83
2022/04/20 04:30:12;;;;;;;4.30;3.43;;;0.70;99.90;;;;;;5025279;28;20422;-83
2022/04/20 04:32:38;;;;;;;5.83;3.77;;;0.20;99.90;;;;;;5025330;28;20462;-83
2022/04/20 04:35:05;;;;;;;5.27;3.40;;;1.20;99.90;;;;;;5023667;28;20414;-83
2022/04/20 04:37:32;;;;;;;5.37;3.33;;;0.20;99.90;;;;;;5024606;28;20936;-83
2022/04/20 04:39:58;;;;;;;4.27;3.73;;;0.30;99.90;;;;;;5023691;28;20441;-83
2022/04/20 04:42:26;;;;;;;6.30;3.53;;;0.50;99.90;;;;;;5024142;28;20438;-84
2022/04/20 04:44:51;;;;;;;6.97;3.57;;;1.70;99.90;;;;;;5022472;28;20175;-83
2022/04/20 04:50:01;;;;;;;4.40;3.33;;;0.30;99.90;;;;;;5021958;28;20178;-83
2022/04/20 04:52:28;;;;;;;5.87;3.77;;;0.30;99.90;;;;;;5020000;28;20465;-83
2022/04/20 04:54:53;;;;;;;4.37;3.97;;;0.40;99.90;;;;;;5019746;28;20174;-83
2022/04/20 04:57:19;;;;;;;5.43;3.53;;;;;;;;;;5019376;28;20694;-83
2022/04/20 04:59:45;;;;;;;12.30;3.67;;;0.50;99.90;;;;;;5020366;28;20201;-83
2022/04/20 05:02:11;;;;;;;5.23;3.63;;;0.80;99.90;;;;;;5017460;28;20253;-83
2022/04/20 05:04:38;;;;;;;11.90;4.03;;;1.30;99.90;;;;;;5016922;28;20210;-83
2022/04/20 05:07:04;;;;;;;4.77;3.70;;;1.00;99.90;;;;;;5018335;28;20205;-83
2022/04/20 05:09:30;;;;;;;7.37;4.20;;;;;;;;;;5016914;28;20422;-83
2022/04/20 05:11:57;;;;;;;5.20;3.63;;;;;;;;;;5014967;28;20476;-83
2022/04/20 05:14:23;;;;;;;6.90;4.23;;;;;;;;;;5014021;28;20421;-83
2022/04/20 05:16:50;;;;;;;7.27;3.87;;;0.70;99.90;;;;;;5017315;28;20888;-83
2022/04/20 05:19:16;;;;;;;9.00;4.00;;;;;;;;;;5019311;28;20417;-83
2022/04/20 05:21:41;;;;;;;6.57;3.87;;;0.70;99.90;;;;;;5019934;28;20426;-83
2022/04/20 05:24:08;;;;;;;10.60;4.47;;;0.80;99.90;;;;;;5020338;28;20476;-83
2022/04/20 05:26:33;;;;;;;8.30;4.00;;;0.90;99.90;;;;;;5020716;28;20189;-84
2022/04/20 05:28:59;;;;;;;11.93;4.77;;;0.90;99.90;;;;;;5022352;28;20410;-84
2022/04/20 05:31:24;;;;;;;8.43;4.23;;;0.90;99.90;;;;;;5019892;28;20229;-81
2022/04/20 05:33:50;;;;;;;6.60;4.67;;;2.00;99.90;;;;;;5019359;28;20182;-82
2022/04/20 05:36:19;;;;;;;6.47;3.83;;;1.10;99.90;;;;;;5016286;28;20178;-80
2022/04/20 05:41:40;;;;;;;5.70;3.80;;;1.20;99.90;;;;;;5017893;28;20500;-80
2022/04/20 05:44:10;;;;;;;4.93;4.10;;;1.20;99.90;;;;;;5019386;28;20398;-80
2022/04/20 05:46:35;;;;;;;5.63;4.70;;;1.30;99.90;;;;;;5019403;28;20410;-80
2022/04/20 05:49:02;;;;;;;5.63;4.03;;;3.10;99.90;;;;;;5017571;28;20454;-81
2022/04/20 05:51:27;;;;;;;5.27;4.47;;;1.50;99.90;;;;;;5018801;28;20210;-81
2022/04/20 05:53:53;;;;;;;5.37;4.17;;;1.50;99.90;;;;;;5018382;28;20452;-81
2022/04/20 05:56:19;;;;;;;7.33;4.27;;;1.60;99.90;;;;;;5019686;28;20175;-81
2022/04/20 05:58:47;;;;;;;5.07;4.30;;;2.10;99.90;;;;;;5018378;28;20266;-81
2022/04/20 06:01:14;;;;;;;6.20;4.73;;;1.70;99.90;;;;;;5020929;28;20217;-83
2022/04/20 06:03:40;;;;;;;6.13;5.00;;;1.80;99.90;;;;;;5021222;28;20428;-83
2022/04/20 06:06:06;;;;;;;5.43;4.93;;;2.00;99.90;;;;;;5022653;28;20416;-84
2022/04/20 06:08:32;;;;;;;7.63;4.83;;;1.90;99.90;;;;;;5022143;28;20424;-84
2022/04/20 06:10:58;;;;;;;8.10;4.97;;;2.60;99.90;;;;;;5022482;28;20434;-84
2022/04/20 06:13:24;;;;;;;5.67;4.83;;;2.10;99.90;;;;;;5020724;28;20212;-85
2022/04/20 06:15:54;;;;;;;6.70;4.40;;;2.20;99.90;;;;;;5023229;28;20222;-85
2022/04/20 06:18:20;;;;;;;7.13;4.97;;;2.30;99.90;;;;;;5023704;28;20414;-85
2022/04/20 06:20:45;;;;;;;6.10;4.83;;;2.40;99.90;;;;;;5024398;28;20429;-85
2022/04/20 06:23:11;;;;;;;5.37;4.70;;;2.50;99.90;;;;;;5024461;28;20916;-85
2022/04/20 06:25:37;;;;;;;7.30;5.13;;;2.50;99.90;;;;;;5024881;28;20186;-86
2022/04/20 06:28:03;;;;;;;5.37;4.80;;;2.60;99.90;;;;;;5025314;28;20171;-84
2022/04/20 06:30:29;;;;;;;5.33;4.83;;;2.70;99.90;;;;;;5022880;28;20202;-84
2022/04/20 06:32:55;;;;;;;5.53;4.97;;;;;;;;;;5024388;28;20465;-85
2022/04/20 06:35:20;;;;;;;5.13;4.40;;;2.90;99.90;;;;;;5024258;28;20526;-85
2022/04/20 06:37:47;;;;;;;7.30;4.80;;;3.00;99.90;;;;;;5025843;28;20572;-84
2022/04/20 06:40:12;;;;;;;6.17;5.20;;;3.20;99.90;;;;;;5031112;28;20181;-84
2022/04/20 06:42:39;;;;;;;8.57;4.90;;;3.40;99.90;;;;;;5031585;28;20895;-84
2022/04/20 06:45:05;;;;;;;6.13;5.53;;;3.60;99.90;;;;;;5030706;28;20190;-85
2022/04/20 06:47:33;;;;;;;5.20;4.70;;;3.80;99.90;;;;;;5025912;28;20992;-84
2022/04/20 06:49:59;;;;;;;5.67;5.17;;;3.90;99.90;;;;;;5025274;28;20437;-84
2022/04/20 07:00:42;;;;;;;5.30;4.30;;;4.90;99.90;;;;;;5023596;28;20389;-85
2022/04/20 07:03:08;;;;;;;5.93;4.50;;;5.00;99.90;;;;;;5022743;28;20206;-85
2022/04/20 07:05:35;;;;;;;6.30;5.03;;;5.10;99.90;;;;;;5021240;28;20653;-84
2022/04/20 07:08:00;;;;;;;5.83;4.33;;;5.30;99.90;;;;;;5022492;28;20273;-84
2022/04/20 07:10:26;;;;;;;5.43;4.93;;;5.40;99.90;;;;;;5023825;28;20207;-85
2022/04/20 07:12:52;;;;;;;5.07;4.20;;;5.60;99.90;;;;;;5021862;28;20214;-85
2022/04/20 07:15:19;;;;;;;4.30;3.90;;;5.80;99.90;;;;;;5022077;28;20423;-83
2022/04/20 07:17:44;;;;;;;4.23;3.83;;;5.90;99.90;;;;;;5021362;28;20191;-85
2022/04/20 07:20:13;;;;;;;4.97;4.40;;;5.90;99.90;;;;;;5023323;28;20652;-85
2022/04/20 07:22:39;;;;;;;4.73;4.30;;;6.00;99.90;;;;;;5021128;28;20214;-84
2022/04/20 07:25:05;;;;;;;5.37;3.83;;;6.20;99.90;;;;;;5021152;28;20183;-83
2022/04/20 07:27:32;;;;;;;6.07;3.80;;;6.40;99.90;;;;;;5020337;28;20185;-84
2022/04/20 07:29:58;;;;;;;8.73;3.63;;;6.70;99.90;;;;;;5019885;28;20725;-84
2022/04/20 07:32:23;;;;;;;5.40;3.77;;;7.30;99.90;;;;;;5020148;28;20244;-85
2022/04/20 07:34:49;;;;;;;4.43;4.00;;;7.90;99.90;;;;;;5021716;28;20265;-85
2022/04/20 07:37:15;;;;;;;5.33;3.33;;;8.50;99.90;;;;;;5020824;28;20260;-85
2022/04/20 07:39:44;;;;;;;4.17;3.77;;;8.90;99.90;;;;;;5022606;28;20226;-85
2022/04/20 07:42:10;;;;;;;5.00;3.10;;;9.40;99.90;;;;;;5021289;28;20236;-85
2022/04/20 07:44:36;;;;;;;4.83;3.30;;;9.90;99.90;;;;;;5021486;28;20535;-84
2022/04/20 07:47:01;;;;;;;3.70;3.30;;;10.10;99.90;;;;;;5023602;28;20187;-84
2022/04/20 07:52:11;;;;;;;3.90;3.33;;;10.80;99.90;;;;;;5025382;28;20229;-85
2022/04/20 07:54:37;;;;;;;4.10;2.93;;;11.30;99.90;;;;;;5024969;28;20269;-84
2022/04/20 07:57:03;;;;;;;4.77;3.00;;;11.80;98.10;;;;;;5023846;28;20273;-85
2022/04/20 07:59:28;;;;;;;3.83;3.00;;;11.90;94.60;;;;;;5022716;28;20183;-85
2022/04/20 08:01:54;;;;;;;4.17;2.50;;;12.10;93.80;;;;;;5025148;28;20208;-85
2022/04/20 08:04:20;;;;;;;3.00;2.50;;;12.30;93.00;;;;;;5024146;28;20192;-85
2022/04/20 08:06:46;;;;;;;3.40;2.50;;;13.00;93.60;;;;;;5022875;28;20194;-85
2022/04/20 08:09:11;;;;;;;4.20;2.80;;;13.90;90.70;;;;;;5024856;28;20759;-85
2022/04/20 08:11:37;;;;;;;3.23;2.80;;;13.80;83.40;;;;;;5025763;28;20218;-85
2022/04/20 08:14:11;;;;;;;3.27;2.83;;;13.70;83.50;;;;;;5025394;28;20664;-85
2022/04/20 08:16:38;;;;;;;3.07;2.77;;;13.40;85.90;;;;;;5025210;28;20179;-85
2022/04/20 08:19:04;;;;;;;3.77;2.80;;;13.20;82.90;;;;;;5019153;28;20179;-86
2022/04/20 08:21:30;;;;;;;3.17;2.70;;;12.80;85.20;;;;;;5014678;28;20286;-86
2022/04/20 08:23:55;;;;;;;3.00;2.70;;;13.20;83.80;;;;;;5020235;28;20207;-84
2022/04/20 08:26:21;;;;;;;2.80;2.57;;;13.60;80.70;;;;;;5024274;28;20197;-84
2022/04/20 08:28:47;;;;;;;2.97;2.63;;;13.60;80.60;;;;;;5019667;28;20186;-86
2022/04/20 08:31:15;;;;;;;2.83;2.53;;;13.60;78.20;;;;;;5020704;28;20207;-84
2022/04/20 08:33:42;;;;;;;3.27;2.60;;;13.80;78.40;;;;;;5022087;28;20182;-85
2022/04/20 08:36:08;;;;;;;2.63;2.33;;;13.50;75.00;;;;;;5025827;28;20174;-87
2022/04/20 08:38:33;;;;;;;2.60;2.33;;;13.40;76.30;;;;;;5023126;28;20206;-85
2022/04/20 08:41:00;;;;;;;2.80;2.50;;;14.00;77.70;;;;;;5023060;28;20230;-84
2022/04/20 08:43:28;;;;;;;3.00;2.27;;;14.40;74.10;;;;;;5022970;28;20194;-85
2022/04/20 08:45:58;;;;;;;3.53;2.40;;;14.30;72.00;;;;;;5024538;28;20183;-85
2022/04/20 08:48:24;;;;;;;5.00;2.53;;;14.60;70.20;;;;;;5027065;28;20222;-85
2022/04/20 08:50:53;;;;;;;3.27;2.30;;;14.30;71.30;;;;;;5029730;28;20233;-84
2022/04/20 08:53:20;;;;;;;3.07;2.33;;;14.10;69.20;;;;;;5026281;28;20210;-85
2022/04/20 08:55:46;;;;;;;2.43;2.23;;;14.20;72.60;;;;;;5039179;28;20172;-83
2022/04/20 08:58:12;;;;;;;2.63;2.40;;;14.20;67.70;;;;;;5022255;28;20672;-85
2022/04/20 09:00:38;;;;;;;2.90;2.57;;;14.10;67.60;;;;;;5023044;28;20183;-85
2022/04/20 09:03:04;;;;;;;4.03;2.53;;;14.60;66.90;;;;;;5021956;28;20180;-86
2022/04/20 09:05:35;;;;;;;4.27;2.77;;;14.50;66.20;;;;;;5023144;28;20185;-86
2022/04/20 09:08:11;;;;;;;2.60;2.33;;;14.40;63.00;;;;;;5023711;28;20163;-86
2022/04/20 09:10:39;;;;;;;2.67;2.37;;;14.10;65.10;;;;;;5021576;28;20180;-86
2022/04/20 09:13:09;;;;;;;3.67;2.90;;;13.80;68.00;;;;;;5023623;28;20202;-86
2022/04/20 09:15:35;;;;;;;2.73;2.43;;;14.00;66.50;;;;;;5022305;28;20534;-86
2022/04/20 09:18:05;;;;;;;3.17;2.60;;;14.20;69.20;;;;;;5023722;28;20234;-86
2022/04/20 09:20:32;;;;;;;2.70;2.40;;;14.10;68.60;;;;;;5023043;28;20187;-86
2022/04/20 09:23:13;;;;;;;3.10;2.80;;;14.20;65.20;;;;;;5024910;28;20176;-86
2022/04/20 09:25:50;;;;;;;2.97;2.40;;;14.20;63.30;;;;;;5024012;28;20219;-86
2022/04/20 09:28:15;;;;;;;2.63;2.40;;;13.90;64.80;;;;;;5024142;28;20643;-87
2022/04/20 09:30:42;;;;;;;4.13;2.50;;;13.70;63.10;;;;;;5024084;28;20185;-85
2022/04/20 09:33:12;;;;;;;5.07;2.27;;;13.60;65.20;;;;;;5026670;28;20212;-87
2022/04/20 09:35:52;;;;;;;2.97;2.27;;;13.70;64.70;;;;;;5029447;28;20188;-87
2022/04/20 09:38:19;;;;;;;4.40;1.93;;;13.90;63.80;;;;;;5019853;28;20268;-86
2022/04/20 09:40:46;;;;;;;2.90;2.70;;;14.10;60.90;;;;;;5020869;28;20185;-86
2022/04/20 09:43:21;;;;;;;2.43;2.23;;;13.80;63.40;;;;;;5021993;28;20228;-86
2022/04/20 09:49:09;;;;;;;4.70;2.33;;;14.10;63.70;;;;;;5023329;28;20264;-86
2022/04/20 09:51:42;;;;;;;5.33;2.73;;;14.30;61.70;;;;;;5022544;28;20205;-85
2022/04/20 09:54:28;;;;;;;2.97;2.67;;;14.50;62.00;;;;;;5022248;28;20180;-85
2022/04/20 09:57:13;;;;;;;3.20;2.33;;;14.60;60.60;;;;;;5022988;28;20175;-85
2022/04/20 10:00:10;;;;;;;4.60;2.80;;;14.10;58.60;;;;;;5023339;28;20315;-86
2022/04/20 10:02:47;;;;;;;4.97;3.00;;;14.30;62.20;;;;;;5017099;28;20213;-86
2022/04/20 10:05:14;;;;;;;2.70;2.50;;;14.60;61.10;;;;;;5024176;28;20175;-85
2022/04/20 10:07:40;;;;;;;7.30;3.03;;;14.70;62.50;;;;;;5021846;28;20184;-86
2022/04/20 10:10:07;;;;;;;2.67;2.27;;;14.70;58.60;;;;;;5024418;28;20190;-87
2022/04/20 10:12:35;;;;;;;5.70;2.30;;;14.60;60.10;;;;;;5022298;28;20203;-87
2022/04/20 10:17:53;;;;;;;2.63;2.43;;;14.80;58.30;;;;;;5029181;28;20180;-84
2022/04/20 10:20:20;;;;;;;3.50;2.40;;;14.60;58.50;;;;;;5025841;28;20194;-84
2022/04/20 10:22:46;;;;;;;2.47;2.27;;;14.60;59.40;;;;;;5026157;28;20194;-84
2022/04/20 10:25:13;;;;;;;2.50;2.20;;;14.70;59.90;;;;;;5028607;28;20182;-84
2022/04/20 10:27:57;;;;;;;3.10;2.40;;;14.80;58.90;;;;;;5027140;28;20179;-84
2022/04/20 10:30:48;;;;;;;4.17;2.57;;;14.80;59.10;;;;;;5028906;28;20182;-84
2022/04/20 10:33:19;;;;;;;3.70;2.40;;;15.00;61.40;;;;;;5027502;28;20202;-84
2022/04/20 10:36:02;;;;;;;3.17;2.57;;;15.10;56.70;;;;;;5027926;28;20163;-80
2022/04/20 10:38:32;;;;;;;2.73;2.30;;;15.10;59.60;;;;;;5026036;28;20221;-82
2022/04/20 10:41:06;;;;;;;5.10;2.47;;;15.10;57.90;;;;;;5025567;28;20645;-83
2022/04/20 10:43:34;;;;;;;3.10;2.30;;;15.70;58.40;;;;;;5025548;28;20739;-84
2022/04/20 10:46:20;;;;;;;5.07;3.00;;;15.70;57.60;;;;;;5026992;28;20182;-84
2022/04/20 10:48:55;;;;;;;2.83;2.63;;;15.40;57.20;;;;;;5021022;28;20659;-80
2022/04/20 10:51:40;;;;;;;3.77;2.83;;;15.30;59.60;;;;;;5021960;28;20206;-78
2022/04/20 10:54:22;;;;;;;4.43;3.00;;;15.50;58.20;;;;;;5040333;28;20163;-80
2022/04/20 10:56:49;;;;;;;4.27;3.10;;;15.40;57.20;;;;;;5036892;28;20192;-81
2022/04/20 10:59:14;;;;;;;3.47;2.97;;;15.20;57.10;;;;;;5021673;28;20178;-80
2022/04/20 11:02:06;;;;;;;2.73;2.50;;;15.10;61.10;;;;;;5023272;28;20215;-82
2022/04/20 11:04:32;;;;;;;3.10;2.80;;;14.90;59.60;;;;;;5021415;28;20175;-83
2022/04/20 11:06:58;;;;;;;3.57;2.80;;;15.40;58.60;;;;;;5020312;28;20529;-83
2022/04/20 11:09:42;;;;;;;4.60;2.70;;;15.70;60.20;;;;;;5020311;28;20258;-83
2022/04/20 11:21:03;;;;;;;4.07;3.03;;;16.30;57.40;;;;;;5019686;28;20213;-85
2022/04/20 11:23:58;;;;;;;4.43;3.10;;;16.40;58.10;;;;;;5017643;28;20261;-86
2022/04/20 11:26:34;;;;;;;3.63;3.17;;;16.80;58.40;;;;;;5018283;28;20183;-86
2022/04/20 11:29:21;;;;;;;3.50;3.20;;;16.80;56.30;;;;;;5021511;28;20217;-84
2022/04/20 11:32:10;;;;;;;4.63;3.00;;;17.00;59.70;;;;;;5022756;28;20213;-83
2022/04/20 11:34:39;;;;;;;3.60;3.30;;;17.50;55.30;;;;;;5024703;28;20638;-81
2022/04/20 11:37:09;;;;;;;3.70;3.30;;;16.90;53.60;;;;;;5025439;28;20672;-85
2022/04/20 11:39:36;;;;;;;6.90;3.00;;;17.00;55.40;;;;;;5026575;28;20167;-83
2022/04/20 11:42:06;;;;;;;4.80;3.40;;;17.20;55.30;;;;;;5025641;28;20274;-81
2022/04/20 11:44:39;;;;;;;3.50;3.00;;;17.30;53.40;;;;;;5025340;28;20242;-85
2022/04/20 11:47:07;;;;;;;5.30;2.87;;;17.20;54.40;;;;;;5023955;28;20179;-85
2022/04/20 11:49:44;;;;;;;7.03;3.20;;;17.50;55.30;;;;;;5023461;28;20179;-85
2022/04/20 11:52:14;;;;;;;5.03;3.53;;;17.70;55.80;;;;;;5023082;28;20234;-86
2022/04/20 11:54:41;;;;;;;3.77;3.27;;;17.70;54.80;;;;;;5022142;28;20190;-85
2022/04/20 11:57:08;;;;;;;5.23;3.00;;;18.00;54.90;;;;;;5020514;28;20183;-85
2022/04/20 11:59:46;;;;;;;3.57;2.80;;;18.60;51.80;;;;;;5021754;28;20190;-85
2022/04/20 12:02:13;;;;;;;3.07;2.77;;;18.90;52.20;;;;;;5027219;28;20639;-81
2022/04/20 12:04:40;;;;;;;5.70;3.43;;;19.40;52.70;;;;;;5025226;28;20182;-85
2022/04/20 12:07:07;;;;;;;4.03;3.20;;;19.00;51.50;;;;;;5024194;28;20179;-85
2022/04/20 12:09:39;;;;;;;3.27;2.83;;;18.80;52.10;;;;;;5021518;28;20254;-82
2022/04/20 12:12:07;;;;;;;3.87;3.20;;;18.90;51.70;;;;;;5025315;28;20203;-85
2022/04/20 12:14:35;;;;;;;2.90;2.70;;;18.80;53.60;;;;;;5028715;28;20187;-85
2022/04/20 12:17:22;;;;;;;5.43;3.03;;;19.10;50.60;;;;;;5029186;28;20198;-86
2022/04/20 12:19:50;;;;;;;8.57;3.20;;;19.30;49.80;;;;;;5023344;28;20232;-84
2022/04/20 12:22:21;;;;;;;9.70;3.10;;;19.70;51.70;;;;;;5026140;28;20279;-85
2022/04/20 12:24:48;;;;;;;3.63;3.33;;;19.10;49.20;;;;;;5026081;28;20241;-86
2022/04/20 12:27:22;;;;;;;3.47;3.17;;;18.90;51.00;;;;;;5026232;28;20200;-86
2022/04/20 12:29:58;;;;;;;5.10;3.60;;;19.30;49.80;;;;;;5024826;28;20178;-85
2022/04/20 12:32:24;;;;;;;5.43;3.17;;;19.10;49.70;;;;;;5023890;28;20198;-85
2022/04/20 12:34:55;;;;;;;4.37;3.67;;;19.30;48.00;;;;;;5022723;28;20186;-85
2022/04/20 12:37:29;;;;;;;3.90;3.60;;;19.30;49.20;;;;;;5022151;28;20198;-83
2022/04/20 12:39:55;;;;;;;5.73;3.83;;;19.40;50.80;;;;;;5024680;28;20696;-84
2022/04/20 12:42:21;;;;;;;5.37;3.40;;;19.00;50.50;;;;;;5026299;28;20215;-84
2022/04/20 12:44:54;;;;;;;3.70;3.40;;;20.00;50.40;;;;;;5027967;28;20171;-85
2022/04/20 12:47:20;;;;;;;5.07;3.80;;;19.90;49.80;;;;;;5028010;28;20651;-84
2022/04/20 12:49:53;;;;;;;4.50;3.67;;;19.90;48.40;;;;;;5026673;28;20179;-85
2022/04/20 12:52:28;;;;;;;5.97;3.57;;;19.90;48.40;;;;;;5027622;28;20677;-85
2022/04/20 12:55:13;;;;;;;5.33;3.43;;;20.30;48.50;;;;;;5031791;28;20161;-82
2022/04/20 13:02:01;;;;;;;3.93;3.60;;;20.60;46.20;;;;;;5039044;28;20273;-83
2022/04/20 13:03:35;;;;;;;5.33;4.20;;;20.80;46.90;;;;;;5026873;28;20223;-84
2022/04/20 13:06:10;;;;;;;4.20;3.60;;;20.40;48.30;;;;;;5025208;28;20175;-84
2022/04/20 13:08:38;;;;;;;4.90;3.47;;;20.50;49.70;;;;;;5023620;28;20638;-84
2022/04/20 13:11:04;;;;;;;4.27;3.87;;;20.40;47.00;;;;;;5023713;28;20279;-84
2022/04/20 13:13:31;;;;;;;5.23;3.50;;;20.30;49.20;;;;;;5023325;28;20180;-83
2022/04/20 13:15:57;;;;;;;6.93;3.77;;;20.70;47.50;;;;;;5037424;28;20191;-83
2022/04/20 13:18:23;;;;;;;5.43;3.83;;;20.50;48.10;;;;;;5025735;28;20179;-84
2022/04/20 13:20:49;;;;;;;3.73;3.37;;;20.30;47.50;;;;;;5024446;28;20215;-84
2022/04/20 13:23:15;;;;;;;8.40;3.67;;;20.30;47.60;;;;;;5024482;28;20222;-84
2022/04/20 13:28:26;;;;;;;5.00;3.73;;;19.90;48.20;;;;;;5027317;28;20199;-84
2022/04/20 13:30:52;;;;;;;4.37;3.67;;;20.50;47.50;;;;;;5027654;28;20210;-84
2022/04/20 13:33:18;;;;;;;6.30;3.73;;;21.10;46.60;;;;;;5026291;28;20185;-85
2022/04/20 13:35:47;;;;;;;3.97;3.67;;;21.00;47.50;;;;;;5024903;28;20191;-86
2022/04/20 13:38:12;;;;;;;4.23;3.70;;;21.00;47.70;;;;;;5026592;28;20227;-85
2022/04/20 13:40:40;;;;;;;5.43;3.77;;;21.10;47.90;;;;;;5022816;28;20188;-86
2022/04/20 13:43:09;;;;;;;5.93;4.20;;;20.80;46.30;;;;;;5019096;28;20763;-85